Time;durP1;ratioP1;P1;durP2;ratioP2;P2;SDS_P1;SDS_P2;PMS_P1;PMS_P2;Temp;Humidity;BMP_temperature;BMP_pressure;BME280_temperature;BME280_humidity;BME280_pressure;Samples;Min_cycle;Max_cycle;Signal;HPM_P1;HPM_P2
2023/02/21 02:16:09;;;;;;;53.92;39.80;;;;;;;8.71;100.00;101909.72;5109245;27;20078;-65
2023/02/21 02:19:11;;;;;;;56.42;40.85;;;;;;;8.70;100.00;101906.16;5098609;28;20048;-66
2023/02/21 02:22:07;;;;;;;62.97;43.70;;;;;;;8.71;100.00;101904.28;5082359;28;20118;-66
2023/02/21 02:24:40;;;;;;;60.00;43.05;;;;;;;8.70;100.00;101902.63;5099389;28;20823;-65
2023/02/21 02:27:30;;;;;;;54.00;40.80;;;;;;;8.69;100.00;101900.97;5107936;27;20043;-66
2023/02/21 02:30:20;;;;;;;56.92;41.47;;;;;;;8.67;100.00;101906.63;5119936;27;20047;-66
2023/02/21 02:33:08;;;;;;;53.55;39.67;;;;;;;8.66;100.00;101912.25;5118293;28;20054;-66
2023/02/21 02:35:45;;;;;;;52.20;39.35;;;;;;;8.65;100.00;101908.72;5098790;28;20090;-66
2023/02/21 02:38:21;;;;;;;50.45;37.03;;;;;;;8.64;100.00;101904.38;5088379;28;20163;-66
2023/02/21 02:41:19;;;;;;;46.83;35.55;;;;;;;8.62;100.00;101908.38;5120463;27;20048;-66
2023/02/21 02:44:17;;;;;;;46.08;35.03;;;;;;;8.64;100.00;101900.81;5071222;28;20058;-67
2023/02/21 02:46:47;;;;;;;46.53;34.10;;;;;;;8.64;100.00;101896.22;5102919;27;20051;-67
2023/02/21 02:49:24;;;;;;;46.33;33.33;;;;;;;8.62;100.00;101895.59;5087261;28;20139;-67
2023/02/21 02:51:52;;;;;;;43.92;33.47;;;;;;;8.62;100.00;101897.50;5105485;27;20376;-67
2023/02/21 02:54:22;;;;;;;41.75;31.52;;;;;;;8.63;100.00;101893.72;5119155;28;20403;-67
2023/02/21 02:56:50;;;;;;;39.80;31.27;;;;;;;8.64;100.00;101895.38;5102640;28;20121;-68
2023/02/21 02:59:25;;;;;;;44.40;31.17;;;;;;;8.62;100.00;101895.59;5101856;28;20044;-68
2023/02/21 03:02:21;;;;;;;39.13;29.77;;;;;;;8.63;100.00;101896.44;5118258;28;20044;-67
2023/02/21 03:05:32;;;;;;;39.05;30.10;;;;;;;8.65;100.00;101886.16;5081014;28;20047;-67
2023/02/21 03:08:25;;;;;;;40.13;30.25;;;;;;;8.65;100.00;101891.59;5084019;28;20040;-68
2023/02/21 03:11:08;;;;;;;42.28;30.33;;;;;;;8.64;100.00;101890.78;5053160;28;20056;-67
2023/02/21 03:13:50;;;;;;;38.40;29.83;;;;;;;8.64;100.00;101885.34;5080483;28;20109;-66
2023/02/21 03:16:37;;;;;;;34.72;24.58;;;;;;;8.66;100.00;101888.66;5099349;27;20050;-66
2023/02/21 03:19:17;;;;;;;35.03;26.90;;;;;;;8.66;100.00;101890.53;5098033;28;20503;-66
2023/02/21 03:21:51;;;;;;;40.17;30.65;;;;;;;8.65;100.00;101886.16;5097314;28;20048;-66
2023/02/21 03:24:20;;;;;;;32.83;24.92;;;;;;;8.64;100.00;101895.38;5093842;28;20048;-66
2023/02/21 03:26:52;;;;;;;37.65;29.08;;;;;;;8.64;100.00;101898.94;5112305;28;20065;-67
2023/02/21 03:29:40;;;;;;;37.65;30.35;;;;;;;8.63;100.00;101901.88;5104287;27;20414;-66
2023/02/21 03:34:52;;;;;;;39.22;29.38;;;;;;;8.65;100.00;101899.75;5080020;27;20042;-66
2023/02/21 03:37:30;;;;;;;41.67;30.58;;;;;;;8.65;100.00;101891.59;5115387;28;20055;-67
2023/02/21 03:39:57;;;;;;;;;;;;;;;8.67;100.00;101884.06;5120491;28;20050;-68
2023/02/21 03:42:25;;;;;;;41.13;29.30;;;;;;;8.67;100.00;101881.34;5116865;28;19920;-66
2023/02/21 03:44:53;;;;;;;41.28;30.42;;;;;;;8.65;100.00;101888.88;5096106;28;20048;-67
2023/02/21 03:47:22;;;;;;;39.38;31.13;;;;;;;8.63;100.00;101888.28;5112899;27;20057;-65
2023/02/21 03:49:50;;;;;;;40.65;29.52;;;;;;;8.62;100.00;101892.06;5113766;28;20413;-66
2023/02/21 03:52:18;;;;;;;43.20;31.77;;;;;;;8.61;100.00;101887.69;5113794;28;20043;-67
2023/02/21 03:54:46;;;;;;;42.15;30.27;;;;;;;8.60;100.00;101899.63;5106387;28;20077;-67
2023/02/21 03:57:17;;;;;;;42.60;30.80;;;;;;;8.61;100.00;101898.53;5077076;28;20052;-66
2023/02/21 03:59:47;;;;;;;42.30;32.03;;;;;;;8.59;100.00;101898.78;5077003;28;20101;-66
2023/02/21 04:02:14;;;;;;;40.47;30.20;;;;;;;8.60;100.00;101899.63;5114129;27;20040;-67
2023/02/21 04:04:42;;;;;;;42.70;32.08;;;;;;;8.58;100.00;101902.53;5103936;28;20046;-67
2023/02/21 04:07:17;;;;;;;41.75;30.92;;;;;;;8.57;100.00;101889.22;5077307;28;20052;-67
2023/02/21 04:09:47;;;;;;;43.83;32.28;;;;;;;8.55;100.00;101885.88;5075968;28;20052;-67
2023/02/21 04:12:20;;;;;;;42.35;30.67;;;;;;;8.55;100.00;101885.88;5077681;28;20095;-65
2023/02/21 04:14:48;;;;;;;41.67;31.83;;;;;;;8.56;100.00;101882.09;5105738;27;21095;-66
2023/02/21 04:17:16;;;;;;;41.95;31.40;;;;;;;8.58;100.00;101885.44;5113999;28;20039;-67
2023/02/21 04:19:45;;;;;;;43.22;32.38;;;;;;;8.59;100.00;101881.66;5100339;28;20048;-66
2023/02/21 04:22:12;;;;;;;45.50;32.03;;;;;;;8.60;100.00;101877.88;5093475;28;20124;-67
2023/02/21 04:24:40;;;;;;;45.40;33.42;;;;;;;8.61;100.00;101882.25;5094731;28;20090;-67
2023/02/21 04:27:09;;;;;;;45.10;32.22;;;;;;;8.63;100.00;101870.09;5093817;27;20109;-67
2023/02/21 04:29:40;;;;;;;50.88;36.03;;;;;;;8.63;100.00;101872.81;5075650;28;20116;-68
2023/02/21 04:32:09;;;;;;;48.70;35.05;;;;;;;8.62;100.00;101870.34;5092304;28;20044;-67
2023/02/21 04:34:37;;;;;;;54.78;37.97;;;;;;;8.60;100.00;101864.31;5076644;28;20526;-67
2023/02/21 04:37:05;;;;;;;53.38;36.85;;;;;;;8.58;100.00;101869.94;5092378;28;20404;-66
2023/02/21 04:39:33;;;;;;;51.65;35.85;;;;;;;8.56;100.00;101869.34;5108128;28;20062;-66
2023/02/21 04:42:01;;;;;;;54.83;35.13;;;;;;;8.55;100.00;101858.72;5112963;28;20044;-67
2023/02/21 04:44:30;;;;;;;48.75;34.72;;;;;;;8.58;100.00;101874.56;5113132;28;20047;-67
2023/02/21 04:46:57;;;;;;;50.63;35.25;;;;;;;8.58;100.00;101867.22;5110715;28;20120;-65
2023/02/21 04:49:26;;;;;;;51.13;37.13;;;;;;;8.59;100.00;101862.66;5113472;28;20065;-67
2023/02/21 04:51:54;;;;;;;51.38;35.75;;;;;;;8.59;100.00;101859.94;5112530;27;20115;-67
2023/02/21 04:54:22;;;;;;;49.00;33.75;;;;;;;8.60;100.00;101864.31;5113190;28;20122;-67
2023/02/21 04:56:49;;;;;;;51.88;36.28;;;;;;;8.59;100.00;101858.03;5110715;28;20048;-67
2023/02/21 04:59:17;;;;;;;56.25;36.97;;;;;;;8.59;100.00;101860.75;5113289;28;20100;-67
2023/02/21 05:01:45;;;;;;;51.22;37.08;;;;;;;8.58;100.00;101863.69;5112534;28;20047;-69
2023/02/21 05:04:12;;;;;;;47.75;34.50;;;;;;;8.56;100.00;101860.38;5111777;28;20043;-68
2023/02/21 05:06:40;;;;;;;55.60;36.95;;;;;;;8.56;100.00;101871.25;5094251;28;20052;-67
2023/02/21 05:09:08;;;;;;;54.35;38.28;;;;;;;8.56;100.00;101863.09;5090235;28;20706;-67
2023/02/21 05:11:36;;;;;;;55.47;37.70;;;;;;;8.55;100.00;101859.56;5091397;28;20036;-67
2023/02/21 05:14:03;;;;;;;53.67;37.08;;;;;;;8.56;100.00;101857.66;5086781;28;20050;-67
2023/02/21 05:16:31;;;;;;;57.13;37.53;;;;;;;8.56;100.00;101863.09;5093472;28;20135;-67
2023/02/21 05:19:01;;;;;;;56.22;37.45;;;;;;;8.55;100.00;101867.69;5106023;28;20123;-67
2023/02/21 05:21:32;;;;;;;57.13;38.03;;;;;;;8.52;100.00;101870.88;5091720;28;20047;-67
2023/02/21 05:24:01;;;;;;;57.95;37.90;;;;;;;8.53;100.00;101878.78;5092820;28;20068;-67
2023/02/21 05:26:34;;;;;;;51.78;35.30;;;;;;;8.56;100.00;101871.25;5109973;28;20051;-67
2023/02/21 05:29:03;;;;;;;52.55;36.40;;;;;;;8.58;100.00;101864.53;5112759;28;20070;-69
2023/02/21 05:31:30;;;;;;;51.05;37.38;;;;;;;8.61;100.00;101863.22;5092186;28;20048;-68
2023/02/21 05:33:58;;;;;;;52.08;37.40;;;;;;;8.59;100.00;101859.94;5099034;28;20495;-67
2023/02/21 05:36:26;;;;;;;54.17;37.78;;;;;;;8.58;100.00;101864.53;5097515;28;20075;-67
2023/02/21 05:38:54;;;;;;;51.63;36.30;;;;;;;8.59;100.00;101858.03;5096924;28;20458;-68
2023/02/21 05:41:22;;;;;;;58.15;39.70;;;;;;;8.59;100.00;101855.31;5098780;28;20476;-68
2023/02/21 05:43:50;;;;;;;54.05;37.72;;;;;;;8.58;100.00;101845.50;5105114;27;20135;-66
2023/02/21 05:46:30;;;;;;;55.13;36.78;;;;;;;8.58;100.00;101847.41;5099296;28;20108;-66
2023/02/21 05:48:59;;;;;;;63.30;40.90;;;;;;;8.59;100.00;101857.22;5078903;28;20072;-66
2023/02/21 05:51:27;;;;;;;58.78;37.22;;;;;;;8.60;100.00;101861.59;5095405;28;20048;-67
2023/02/21 05:53:54;;;;;;;65.00;42.10;;;;;;;8.59;100.00;101866.19;5095557;28;20048;-67
2023/02/21 05:56:22;;;;;;;69.82;42.15;;;;;;;8.60;100.00;101867.00;5098943;27;20502;-67
2023/02/21 05:58:50;;;;;;;71.93;42.05;;;;;;;8.61;100.00;101865.94;5096635;28;20077;-66
2023/02/21 06:01:17;;;;;;;65.72;40.75;;;;;;;8.61;100.00;101871.38;5078575;28;20124;-67
2023/02/21 06:03:45;;;;;;;64.43;42.35;;;;;;;8.61;100.00;101866.78;5096589;28;20048;-67
2023/02/21 06:06:14;;;;;;;69.13;43.28;;;;;;;8.61;100.00;101871.38;5113565;28;20062;-67
2023/02/21 06:08:47;;;;;;;65.00;40.67;;;;;;;8.61;100.00;101872.22;5114840;27;20050;-67
2023/02/21 06:11:21;;;;;;;61.53;38.70;;;;;;;8.61;100.00;101872.22;5116440;28;20051;-68
2023/02/21 06:13:52;;;;;;;68.10;42.17;;;;;;;8.61;100.00;101883.09;5115588;28;20484;-67
2023/02/21 06:16:21;;;;;;;69.68;41.75;;;;;;;8.61;100.00;101865.94;5113058;28;20525;-67
2023/02/21 06:18:50;;;;;;;72.43;43.53;;;;;;;8.59;100.00;101865.38;5115249;28;20051;-68
2023/02/21 06:21:18;;;;;;;71.20;41.90;;;;;;;8.59;100.00;101878.94;5114528;27;20503;-68
2023/02/21 06:23:46;;;;;;;65.75;41.88;;;;;;;8.56;100.00;101876.66;5114575;28;20418;-67
2023/02/21 06:26:15;;;;;;;68.32;40.40;;;;;;;8.55;100.00;101878.56;5095090;28;20123;-68
2023/02/21 06:28:43;;;;;;;64.05;41.47;;;;;;;8.55;100.00;101869.59;5095647;28;20119;-66
2023/02/21 06:31:10;;;;;;;53.80;35.00;;;;;;;8.57;100.00;101878.34;5095170;28;20101;-67
2023/02/21 06:33:38;;;;;;;60.38;39.15;;;;;;;8.57;100.00;101879.16;5119122;27;20499;-66
2023/02/21 06:36:09;;;;;;;60.15;38.92;;;;;;;8.53;100.00;101878.78;5101554;27;20048;-67
2023/02/21 06:38:37;;;;;;;59.28;37.92;;;;;;;8.53;100.00;101888.81;5094048;28;20052;-67
2023/02/21 06:41:06;;;;;;;63.40;39.25;;;;;;;8.52;100.00;101879.03;5094489;28;20241;-67
2023/02/21 06:43:37;;;;;;;60.00;37.90;;;;;;;8.52;100.00;101881.75;5095795;28;20059;-68
2023/02/21 06:46:05;;;;;;;59.33;37.28;;;;;;;8.50;100.00;101873.81;5071506;28;20051;-68
2023/02/21 06:48:32;;;;;;;60.92;39.45;;;;;;;8.51;100.00;101880.06;5094874;28;20040;-69
2023/02/21 06:51:00;;;;;;;47.92;31.58;;;;;;;8.52;100.00;101885.28;5077362;28;20101;-66
2023/02/21 06:53:28;;;;;;;65.72;39.97;;;;;;;8.53;100.00;101880.69;5094478;28;20063;-68
2023/02/21 06:55:56;;;;;;;56.75;37.60;;;;;;;8.50;100.00;101890.09;5076999;28;20054;-67
2023/02/21 06:58:23;;;;;;;59.20;37.92;;;;;;;8.49;100.00;101888.47;5076892;28;20049;-67
2023/02/21 07:00:51;;;;;;;60.58;37.55;;;;;;;8.48;100.00;101892.22;5095501;28;20137;-66
2023/02/21 07:03:18;;;;;;;55.22;36.50;;;;;;;8.48;100.00;101885.97;5102680;28;20070;-68
2023/02/21 07:05:46;;;;;;;56.00;36.05;;;;;;;8.49;100.00;101893.91;5114851;28;20036;-67
2023/02/21 07:08:14;;;;;;;55.10;35.63;;;;;;;8.50;100.00;101890.09;5113278;27;20039;-67
2023/02/21 07:10:41;;;;;;;53.08;35.20;;;;;;;8.51;100.00;101890.94;5115650;28;20039;-68
2023/02/21 07:13:09;;;;;;;60.00;37.75;;;;;;;8.51;100.00;101886.34;5113891;28;20055;-67
2023/02/21 07:15:36;;;;;;;56.13;37.20;;;;;;;8.52;100.00;101887.19;5110653;28;20055;-67
2023/02/21 07:18:04;;;;;;;55.95;37.70;;;;;;;8.52;100.00;101888.00;5113634;28;20070;-67
2023/02/21 07:20:34;;;;;;;56.33;38.65;;;;;;;8.52;100.00;101896.16;5115205;27;20071;-67
2023/02/21 07:23:01;;;;;;;56.40;36.90;;;;;;;8.51;100.00;101891.78;5095964;27;20055;-66
2023/02/21 07:25:29;;;;;;;56.50;36.85;;;;;;;8.51;100.00;101883.63;5093623;28;20048;-67
2023/02/21 07:27:57;;;;;;;56.88;36.83;;;;;;;8.51;100.00;101883.63;5093833;28;20052;-67
2023/02/21 07:30:25;;;;;;;50.97;33.10;;;;;;;8.48;100.00;101881.34;5095124;28;20046;-68
2023/02/21 07:32:54;;;;;;;53.97;35.95;;;;;;;8.48;100.00;101889.50;5106584;27;20051;-66
2023/02/21 07:35:20;;;;;;;51.33;33.03;;;;;;;8.51;100.00;101894.50;5112567;28;20064;-66
2023/02/21 07:37:48;;;;;;;49.28;32.60;;;;;;;8.52;100.00;101896.16;5114932;27;20047;-66
2023/02/21 07:40:16;;;;;;;47.65;32.00;;;;;;;8.49;100.00;101887.59;5113933;28;20047;-67
2023/02/21 07:42:44;;;;;;;44.65;29.73;;;;;;;8.48;100.00;101880.53;5113651;28;20047;-65
2023/02/21 07:45:12;;;;;;;47.10;30.38;;;;;;;8.47;100.00;101885.16;5102422;27;20039;-66
2023/02/21 07:47:40;;;;;;;49.00;32.28;;;;;;;8.47;100.00;101890.56;5116266;28;20123;-66
2023/02/21 07:50:07;;;;;;;48.65;31.38;;;;;;;8.47;100.00;101890.56;5114033;28;20036;-65
2023/02/21 07:52:35;;;;;;;44.83;31.15;;;;;;;8.49;100.00;101902.03;5096805;28;20050;-65
2023/02/21 07:55:03;;;;;;;40.78;27.90;;;;;;;8.50;100.00;101900.97;5111937;28;20051;-65
2023/02/21 07:57:31;;;;;;;44.65;30.17;;;;;;;8.51;100.00;101886.34;5113805;27;20041;-64
2023/02/21 07:59:58;;;;;;;42.65;28.70;;;;;;;8.51;100.00;101891.78;5114350;28;20035;-64
2023/02/21 08:02:26;;;;;;;40.20;27.20;;;;;;;8.50;100.00;101890.09;5113646;28;20092;-64
2023/02/21 08:04:54;;;;;;;45.33;27.95;;;;;;;8.51;100.00;101893.66;5094562;28;20044;-67
2023/02/21 08:07:22;;;;;;;39.95;26.92;;;;;;;8.55;100.00;101891.31;5093807;28;20514;-65
2023/02/21 08:09:50;;;;;;;36.95;25.42;;;;;;;8.55;100.00;101892.16;5082148;27;20089;-64
2023/02/21 08:12:17;;;;;;;41.05;26.35;;;;;;;8.57;100.00;101906.34;5113779;28;20044;-66
2023/02/21 08:14:45;;;;;;;37.10;24.60;;;;;;;8.57;100.00;101897.38;5112189;27;20044;-65
2023/02/21 08:17:13;;;;;;;32.97;21.73;;;;;;;8.56;100.00;101898.41;5117002;28;20123;-65
2023/02/21 08:19:40;;;;;;;38.75;25.77;;;;;;;8.50;100.00;101900.97;5116785;27;20038;-63
2023/02/21 08:22:08;;;;;;;32.30;23.35;;;;;;;8.45;100.00;101895.41;5114299;28;20075;-64
2023/02/21 08:24:36;;;;;;;30.38;21.52;;;;;;;8.41;100.00;101890.66;5094927;28;20059;-65
2023/02/21 08:27:03;;;;;;;29.45;21.73;;;;;;;8.40;100.00;101895.25;5093262;28;20055;-65
2023/02/21 08:29:31;;;;;;;28.00;21.48;;;;;;;8.39;100.00;101898.97;5075808;28;20161;-67
2023/02/21 08:31:59;;;;;;;31.42;22.40;;;;;;;8.39;100.00;101898.16;5114843;27;20058;-66
2023/02/21 08:34:28;;;;;;;30.33;21.85;;;;;;;8.39;100.00;101893.56;5109115;28;20048;-65
2023/02/21 08:36:56;;;;;;;31.65;22.45;;;;;;;8.37;100.00;101901.13;5100192;28;20052;-66
2023/02/21 08:39:24;;;;;;;29.58;21.50;;;;;;;8.36;100.00;101894.00;5094213;28;20052;-67
2023/02/21 08:41:51;;;;;;;26.13;19.13;;;;;;;8.40;100.00;101897.97;5111006;28;20054;-66
2023/02/21 08:44:21;;;;;;;27.27;19.52;;;;;;;8.43;100.00;101902.94;5112997;28;20162;-66
2023/02/21 08:46:50;;;;;;;28.45;18.33;;;;;;;8.47;100.00;101895.19;5113404;28;20122;-67
2023/02/21 08:49:18;;;;;;;29.60;20.45;;;;;;;8.47;100.00;101901.44;5112891;28;20051;-67
2023/02/21 08:51:46;;;;;;;25.42;18.70;;;;;;;8.49;100.00;101883.03;5112634;28;20083;-66
2023/02/21 08:54:14;;;;;;;30.65;20.90;;;;;;;8.50;100.00;101894.72;5097751;28;20502;-67
2023/02/21 08:56:41;;;;;;;27.50;17.08;;;;;;;8.55;100.00;101885.88;5103272;28;20056;-66
2023/02/21 08:59:09;;;;;;;27.55;17.15;;;;;;;8.52;100.00;101892.59;5112386;28;20055;-66
2023/02/21 09:01:37;;;;;;;27.35;18.40;;;;;;;8.51;100.00;101890.94;5113538;28;20055;-66
2023/02/21 09:04:05;;;;;;;25.30;16.75;;;;;;;8.49;100.00;101888.47;5112561;28;20055;-66
2023/02/21 09:06:32;;;;;;;21.65;14.32;;;;;;;8.51;100.00;101886.34;5112585;28;20388;-66
2023/02/21 09:09:00;;;;;;;22.58;16.42;;;;;;;8.52;100.00;101890.72;5112301;28;20048;-65
2023/02/21 09:11:28;;;;;;;23.42;16.92;;;;;;;8.50;100.00;101884.69;5113663;28;20130;-66
2023/02/21 09:13:55;;;;;;;25.70;16.45;;;;;;;8.49;100.00;101883.03;5097822;28;20124;-66
2023/02/21 09:16:23;;;;;;;23.73;13.48;;;;;;;8.55;100.00;101883.19;5093864;28;20059;-66
2023/02/21 09:19:00;;;;;;;21.77;13.85;;;;;;;8.61;100.00;101880.38;5092992;28;20117;-65
2023/02/21 09:21:27;;;;;;;;;;;;;;;8.63;100.00;101874.69;5092702;28;20044;-67
2023/02/21 09:23:55;;;;;;;51.70;15.18;;;;;;;8.66;100.00;101868.81;5114609;28;19920;-67
2023/02/21 09:26:23;;;;;;;23.45;15.82;;;;;;;8.62;100.00;101875.78;5120068;28;20047;-67
2023/02/21 09:28:52;;;;;;;21.67;15.43;;;;;;;8.57;100.00;101876.47;5118199;28;20376;-66
2023/02/21 09:31:20;;;;;;;19.35;13.07;;;;;;;8.58;100.00;101864.53;5105474;28;20550;-65
2023/02/21 09:33:47;;;;;;;21.55;14.27;;;;;;;8.59;100.00;101865.38;5087574;28;20051;-66
2023/02/21 09:36:17;;;;;;;20.70;12.80;;;;;;;8.57;100.00;101862.88;5100094;28;20496;-66
2023/02/21 09:38:45;;;;;;;21.92;15.27;;;;;;;8.58;100.00;101871.84;5117346;28;20047;-66
2023/02/21 09:41:13;;;;;;;18.48;12.18;;;;;;;8.58;100.00;101874.56;5119433;28;20510;-66
2023/02/21 09:43:53;;;;;;;19.48;12.73;;;;;;;8.56;100.00;101865.81;5124561;28;20039;-66
2023/02/21 09:46:40;;;;;;;17.60;12.48;;;;;;;8.59;100.00;101858.03;5119530;28;20111;-67
2023/02/21 09:49:24;;;;;;;17.63;11.82;;;;;;;8.59;100.00;101854.50;5097795;28;20127;-66
2023/02/21 09:51:53;;;;;;;18.58;11.88;;;;;;;8.56;100.00;101850.34;5120453;28;20116;-66
2023/02/21 09:54:38;;;;;;;19.50;13.02;;;;;;;8.57;100.00;101864.75;5084251;28;20072;-66
2023/02/21 09:57:09;;;;;;;20.15;13.25;;;;;;;8.59;100.00;101859.94;5082806;28;20052;-66
2023/02/21 09:59:37;;;;;;;20.58;13.05;;;;;;;8.60;100.00;101861.59;5112583;28;20044;-67
2023/02/21 10:02:14;;;;;;;16.45;11.93;;;;;;;8.58;100.00;101864.53;5113029;28;20074;-66
2023/02/21 10:05:12;;;;;;;16.98;12.35;;;;;;;8.61;100.00;101871.38;5113461;28;20126;-65
2023/02/21 10:08:00;;;;;;;17.80;12.82;;;;;;;8.61;100.00;101857.78;5111813;28;20043;-66
2023/02/21 10:10:43;;;;;;;20.77;13.15;;;;;;;8.69;100.00;101860.22;5112721;28;20051;-66
2023/02/21 10:13:19;;;;;;;17.83;10.80;;;;;;;8.68;100.00;101862.09;4753363;28;10000752;-68
2023/02/21 10:15:53;;;;;;;19.90;13.88;;;;;;;8.69;100.00;101860.22;5088115;28;20054;-67
2023/02/21 10:18:32;;;;;;;20.45;12.25;;;;;;;8.73;100.00;101858.66;5088882;28;20409;-67
2023/02/21 10:21:04;;;;;;;16.80;12.13;;;;;;;8.71;100.00;101863.53;5105119;28;20135;-67
2023/02/21 10:23:35;;;;;;;20.25;13.80;;;;;;;8.69;100.00;101865.66;5111679;28;20065;-67
2023/02/21 10:26:11;;;;;;;22.40;14.38;;;;;;;8.68;100.00;101862.09;5113025;28;20047;-66
2023/02/21 10:28:40;;;;;;;21.48;14.35;;;;;;;8.66;100.00;101866.94;5111872;28;20089;-67
2023/02/21 10:31:13;;;;;;;19.90;14.07;;;;;;;8.66;100.00;101871.50;5110084;28;20089;-66
2023/02/21 10:33:41;;;;;;;20.77;14.48;;;;;;;8.66;100.00;101861.50;5112153;28;20078;-66
2023/02/21 10:36:18;;;;;;;19.83;13.13;;;;;;;8.65;100.00;101857.09;5095387;28;20100;-67
2023/02/21 10:39:06;;;;;;;19.88;13.35;;;;;;;8.67;100.00;101862.31;5111235;28;20047;-67
2023/02/21 10:41:36;;;;;;;18.83;13.43;;;;;;;8.66;100.00;101864.22;5112698;28;20051;-66
2023/02/21 10:44:17;;;;;;;20.45;14.25;;;;;;;8.66;100.00;101871.50;5112498;27;20036;-67
2023/02/21 10:46:51;;;;;;;21.75;13.82;;;;;;;8.74;100.00;101863.06;5094892;28;20156;-66
2023/02/21 10:49:28;;;;;;;21.48;12.00;;;;;;;8.81;100.00;101863.81;5108513;28;20478;-66
2023/02/21 10:52:05;;;;;;;18.65;13.40;;;;;;;8.81;100.00;101866.53;5091097;28;20078;-66
2023/02/21 10:54:33;;;;;;;20.08;14.88;;;;;;;8.72;100.00;101863.28;5092787;28;20110;-66
2023/02/21 10:57:04;;;;;;;19.73;14.10;;;;;;;8.63;100.00;101866.56;5095336;28;20048;-67
2023/02/21 10:59:34;;;;;;;23.00;15.23;;;;;;;8.58;100.00;101874.56;5110409;28;20039;-67
2023/02/21 11:02:20;;;;;;;22.52;15.88;;;;;;;8.53;100.00;101859.78;5111882;28;20136;-66
2023/02/21 11:04:48;;;;;;;20.35;15.13;;;;;;;8.51;100.00;101867.34;5093759;28;20093;-65
2023/02/21 11:07:17;;;;;;;21.13;14.35;;;;;;;8.50;100.00;101859.41;5105326;27;20097;-67
2023/02/21 11:09:46;;;;;;;21.55;14.68;;;;;;;8.47;100.00;101860.69;5096153;27;20061;-65
2023/02/21 11:12:29;;;;;;;19.75;14.77;;;;;;;8.48;100.00;101864.25;5104355;28;20047;-66
2023/02/21 11:14:56;;;;;;;21.52;15.35;;;;;;;8.48;100.00;101862.34;5089885;28;20040;-66
2023/02/21 11:17:25;;;;;;;22.45;15.50;;;;;;;8.48;100.00;101854.19;5092350;27;20043;-66
2023/02/21 11:20:17;;;;;;;21.58;15.55;;;;;;;8.47;100.00;101855.25;5095873;28;20036;-66
2023/02/21 11:22:48;;;;;;;20.48;14.80;;;;;;;8.49;100.00;101850.44;5079528;28;20052;-66
2023/02/21 11:25:26;;;;;;;19.70;14.48;;;;;;;8.51;100.00;101852.91;5106643;28;20056;-66
2023/02/21 11:28:05;;;;;;;19.92;14.90;;;;;;;8.52;100.00;101849.97;5096270;28;20036;-67
2023/02/21 11:30:36;;;;;;;19.35;13.40;;;;;;;8.58;100.00;101847.41;5107990;27;20039;-66
2023/02/21 11:33:04;;;;;;;19.77;13.57;;;;;;;8.63;100.00;101842.09;5109116;28;20052;-65
2023/02/21 11:35:35;;;;;;;19.08;13.13;;;;;;;8.68;100.00;101842.22;5075815;28;20132;-65
2023/02/21 11:38:06;;;;;;;21.83;13.50;;;;;;;8.73;100.00;101834.22;5106728;27;20107;-66
2023/02/21 11:40:45;;;;;;;20.50;14.18;;;;;;;8.79;100.00;101833.31;5079754;28;20050;-66
2023/02/21 11:43:18;;;;;;;22.05;15.13;;;;;;;8.74;100.00;101833.16;5082870;28;20040;-65
2023/02/21 11:45:58;;;;;;;23.20;16.27;;;;;;;8.71;100.00;101830.94;5108851;27;20078;-66
2023/02/21 11:48:31;;;;;;;22.02;15.38;;;;;;;8.69;100.00;101830.31;5108491;28;20455;-66
2023/02/21 11:51:04;;;;;;;25.15;15.65;;;;;;;8.68;100.00;101826.78;5093259;28;20546;-66
2023/02/21 11:53:39;;;;;;;19.98;12.52;;;;;;;8.74;100.00;101825.03;5109913;28;20047;-66
2023/02/21 11:56:27;;;;;;;20.67;12.95;;;;;;;8.92;100.00;101830.41;5094930;27;20055;-66
2023/02/21 11:59:04;;;;;;;21.05;11.85;;;;;;;8.91;100.00;101826.00;5099447;28;20039;-65
2023/02/21 12:02:03;;;;;;;19.45;11.85;;;;;;;8.91;100.00;101822.47;5103927;27;20067;-64
2023/02/21 12:05:06;;;;;;;18.73;11.60;;;;;;;8.92;100.00;101826.84;5090757;28;20070;-66
2023/02/21 12:07:42;;;;;;;19.00;11.85;;;;;;;8.90;100.00;101820.84;5063911;28;20051;-65
2023/02/21 12:10:28;;;;;;;17.63;11.45;;;;;;;8.86;100.00;101820.44;5096521;28;20134;-65
2023/02/21 12:13:05;;;;;;;18.60;12.30;;;;;;;8.84;100.00;101814.41;5094574;28;20044;-65
2023/02/21 12:15:53;;;;;;;17.92;12.32;;;;;;;8.83;100.00;101809.22;5095338;27;20043;-65
2023/02/21 12:18:38;;;;;;;16.60;10.02;;;;;;;8.91;100.00;101804.28;5111953;27;20051;-65
2023/02/21 12:21:06;;;;;;;16.90;10.27;;;;;;;8.93;100.00;101809.50;5131209;27;20050;-65
2023/02/21 12:24:14;;;;;;;17.60;11.98;;;;;;;8.92;100.00;101800.50;5107753;28;20134;-65
2023/02/21 12:26:41;;;;;;;17.70;11.73;;;;;;;8.91;100.00;101798.84;5066476;28;20043;-66
2023/02/21 12:29:36;;;;;;;17.15;12.05;;;;;;;8.90;100.00;101791.75;5101353;28;20068;-66
2023/02/21 12:32:20;;;;;;;17.17;11.18;;;;;;;8.90;100.00;101797.19;5104469;28;20118;-65
2023/02/21 12:35:07;;;;;;;15.95;11.98;;;;;;;8.90;100.00;101791.75;5094851;28;20101;-66
2023/02/21 12:37:43;;;;;;;17.02;12.13;;;;;;;8.89;100.00;101784.66;5102698;27;20052;-65
2023/02/21 12:40:26;;;;;;;18.42;12.50;;;;;;;8.90;100.00;101786.31;5094816;28;20051;-64
2023/02/21 12:43:07;;;;;;;16.60;12.15;;;;;;;8.92;100.00;101778.78;5094960;28;20144;-64
2023/02/21 12:45:41;;;;;;;16.13;12.35;;;;;;;8.93;100.00;101783.13;5104345;28;20044;-64
2023/02/21 12:48:56;;;;;;;21.00;13.60;;;;;;;8.92;100.00;101783.34;5106490;27;20480;-64
2023/02/21 12:51:34;;;;;;;19.33;12.10;;;;;;;8.88;100.00;101779.47;5019693;28;20140;-65
2023/02/21 12:54:09;;;;;;;17.58;12.40;;;;;;;8.89;100.00;101779.22;4996800;28;20541;-65
2023/02/21 12:56:48;;;;;;;18.05;12.70;;;;;;;8.91;100.00;101774.38;5068753;28;20060;-65
2023/02/21 12:59:46;;;;;;;18.35;12.95;;;;;;;8.92;100.00;101777.91;5101332;28;20052;-68
2023/02/21 13:02:38;;;;;;;18.98;12.48;;;;;;;8.95;100.00;101777.47;5076421;28;20044;-67
2023/02/21 13:05:14;;;;;;;18.60;12.13;;;;;;;8.96;100.00;101773.69;5112429;28;20051;-64
2023/02/21 13:07:53;;;;;;;18.67;10.88;;;;;;;8.95;100.00;101772.84;5095133;28;20039;-65
2023/02/21 13:10:23;;;;;;;17.92;11.27;;;;;;;8.94;100.00;101771.19;5113397;28;20085;-66
2023/02/21 13:13:11;;;;;;;16.15;10.45;;;;;;;8.97;100.00;101769.88;5101029;28;20529;-66
2023/02/21 13:15:41;;;;;;;17.40;11.48;;;;;;;8.97;100.00;101759.00;5104135;28;20054;-66
2023/02/21 13:18:22;;;;;;;16.33;10.60;;;;;;;8.98;100.00;101762.59;5115252;28;20040;-65
2023/02/21 13:20:57;;;;;;;17.70;9.57;;;;;;;8.99;100.00;101758.78;5100100;28;20040;-66
2023/02/21 13:23:48;;;;;;;16.70;11.40;;;;;;;9.03;100.00;101762.69;5110139;28;20043;-66
2023/02/21 13:26:53;;;;;;;16.90;10.50;;;;;;;9.04;100.00;101757.00;5103071;28;20345;-66
2023/02/21 13:29:36;;;;;;;15.15;9.35;;;;;;;9.08;100.00;101749.22;5082450;28;20509;-63
2023/02/21 13:32:12;;;;;;;16.30;10.27;;;;;;;9.11;100.00;101748.75;5104446;28;20043;-66
2023/02/21 13:34:44;;;;;;;16.45;10.63;;;;;;;9.14;100.00;101748.31;5099413;28;20050;-67
2023/02/21 13:37:18;;;;;;;14.65;9.93;;;;;;;9.14;100.00;101740.97;5089299;28;20043;-66
2023/02/21 13:39:51;;;;;;;14.10;8.88;;;;;;;9.17;100.00;101736.94;5111025;28;20043;-66
2023/02/21 13:42:24;;;;;;;19.05;10.93;;;;;;;9.19;100.00;101734.81;5107409;28;20082;-66
2023/02/21 13:45:07;;;;;;;17.73;11.57;;;;;;;9.18;100.00;101738.59;5110962;28;20480;-67
2023/02/21 13:48:01;;;;;;;16.48;10.55;;;;;;;9.12;100.00;101740.38;5096023;28;20047;-66
2023/02/21 13:50:37;;;;;;;16.48;10.15;;;;;;;9.13;100.00;101735.75;5073680;28;20050;-66
2023/02/21 13:53:15;;;;;;;16.90;10.43;;;;;;;9.11;100.00;101737.88;5105661;28;20044;-67
2023/02/21 13:55:58;;;;;;;17.10;9.27;;;;;;;9.12;100.00;101737.66;5075249;28;20496;-66